Terminal Aerodrome Forecast
Issued by NWS Sioux Falls, SD

Home | Current Version | Previous Version | Text Only | Print | Product List | Glossary Off
Versions: 1 2 3 4 5 6 7 8 9 10 11 12 13 14 15 16

112
FTUS43 KFSD 200538
TAFFSD
TAF
KFSD 200538Z 2006/2106 09006KT P6SM SCT050 SCT120 OVC250
     FM201000 04009KT 4SM BR BKN020
     FM201400 05009KT P6SM SCT035 SCT120
     FM201900 08011KT P6SM SCT120
     FM210200 10007KT P6SM BKN120=

USA.gov is the U.S. government's official web portal to all federal, state and local government web resources and services.